avis per tempestes more information blitzortung!


avis per Pluja more information rain snow radar


Visita la nostra xarxa de llocs de meteo:

Template documentation
and downloads

And another site



Thunderstorms From: 20-07-2018 17:00 Until: 21-07-2018 01:59 warning for: Thunderstorms Level: Yellow info button
Rain From: 20-07-2018 17:00 Until: 21-07-2018 01:59 warning for: Rain Level: Yellow info button

Pagina Historial Weather Underground text

Diari Resum May 2, 2016 Unitats:  Mètric    Imperial   Tant
« Previous Dia
SegĂźent Dia »
Diari Setmana Mensual Anual Personalitzada
  Maxima: Minima: Media:
Temperatura: -17.8 °C -13.8 °C -8.2 °C
Punt de rosada: -17.8 °C -20.2 °C -16.8 °C
Humitat: Humidity % 26 % 37 %
Wind Speed: 0 km/h 0 km/h 10.3 km/h
RĂ fegues de vent: 0 km/h - -
Vent:- - SSW
Pression baro: 0 hPa 34462.7 hPa -
Precipitacions: 0 mm    
Historical Graphs
 
 
Dades de taula per May 2, 2016
Temps Temperatura Punt de rosada Pression baro Vent Wind Speed RĂ fegues de vent Humitat Rainfall Rate (Hourly)
-17.8 °C -17.8 °C 0 hPa Calm     Humidity % 0 mm
00:00 -13.2 °C -20.1 °C 34601.5 hPa SW 5.1 km/h 7.7 km/h 41 % 0 mm
00:02 -11.5 °C -17.9 °C 34635.4 hPa Calm     45 % 0 mm
00:10 -13.3 °C -20.1 °C 34601.5 hPa SW 2.6 km/h 7.7 km/h 42 % 0 mm
00:20 -13.3 °C -20.1 °C 34601.5 hPa WSW 2.6 km/h 7.7 km/h 42 % 0 mm
00:30 -13.4 °C -20.2 °C 34567.7 hPa WSW 5.1 km/h 7.7 km/h 42 % 0 mm
00:40 -13.4 °C -20 °C 34567.7 hPa SW 5.1 km/h 10.3 km/h 43 % 0 mm
00:50 -13.6 °C -19.9 °C 34601.5 hPa SW 2.6 km/h 5.1 km/h 44 % 0 mm
01:00 -13.5 °C -19.9 °C 34601.5 hPa WSW 5.1 km/h 7.7 km/h 44 % 0 mm
01:10 -13.4 °C -19.8 °C 34601.5 hPa West 2.6 km/h 15.6 km/h 44 % 0 mm
01:20 -13.5 °C -19.9 °C 34601.5 hPa West 5.1 km/h 12.9 km/h 44 % 0 mm
01:30 -13.6 °C -20 °C 34601.5 hPa Calm   5.1 km/h 44 % 0 mm
01:40 -13.7 °C -20.1 °C 34601.5 hPa WSW 2.6 km/h 5.1 km/h 44 % 0 mm
01:50 -13.7 °C -19.9 °C 34601.5 hPa West 5.1 km/h 10.3 km/h 45 % 0 mm
02:00 -13.8 °C -20.1 °C 34601.5 hPa WSW 5.1 km/h 5.1 km/h 45 % 0 mm
02:10 -13.8 °C -19.9 °C 34601.5 hPa WSW 2.6 km/h 7.7 km/h 46 % 0 mm
02:20 -13.8 °C -19.9 °C 34635.4 hPa WSW 7.7 km/h 7.7 km/h 46 % 0 mm
02:30 -13.8 °C -19.8 °C 34601.5 hPa WSW 7.7 km/h 7.7 km/h 46 % 0 mm
02:40 -13.6 °C -19.5 °C 34601.5 hPa SW 5.1 km/h 7.7 km/h 47 % 0 mm
02:50 -13.4 °C -19.3 °C 34567.7 hPa SW 2.6 km/h 5.1 km/h 47 % 0 mm
03:00 -13.1 °C -19.1 °C 34601.5 hPa South 2.6 km/h 7.7 km/h 47 % 0 mm
03:10 -13.1 °C -19 °C 34601.5 hPa South 2.6 km/h 7.7 km/h 47 % 0 mm
03:20 -13.1 °C -19.2 °C 34635.4 hPa SW 2.6 km/h 7.7 km/h 46 % 0 mm
03:30 -12.7 °C -18.7 °C 34601.5 hPa WSW 5.1 km/h 10.3 km/h 47 % 0 mm
03:40 -12.6 °C -18.6 °C 34601.5 hPa West 5.1 km/h 5.1 km/h 47 % 0 mm
03:50 -12.4 °C -18.6 °C 34601.5 hPa WSW 5.1 km/h 5.1 km/h 46 % 0 mm
04:00 -12.3 °C -18.4 °C 34601.5 hPa WSW 2.6 km/h 10.3 km/h 46 % 0 mm
04:10 -11.8 °C -18 °C 34601.5 hPa West 5.1 km/h 7.7 km/h 46 % 0 mm
04:20 -11.6 °C -17.8 °C 34635.4 hPa WSW 5.1 km/h 10.3 km/h 46 % 0 mm
04:30 -11.4 °C -17.8 °C 34601.5 hPa WSW 7.7 km/h 12.9 km/h 45 % 0 mm
04:40 -11.2 °C -17.6 °C 34601.5 hPa WSW 7.7 km/h 7.7 km/h 45 % 0 mm
04:50 -10.8 °C -17.3 °C 34601.5 hPa NW 7.7 km/h 10.3 km/h 45 % 0 mm
05:10 -10.6 °C -17.2 °C 34601.5 hPa ENE 7.7 km/h 10.3 km/h 44 % 0 mm
05:20 -10.3 °C -17 °C 34601.5 hPa ENE 5.1 km/h 10.3 km/h 44 % 0 mm
05:30 -9.8 °C -16.6 °C 34601.5 hPa East 7.7 km/h 7.7 km/h 44 % 0 mm
05:40 -9.6 °C -16.6 °C 34601.5 hPa SSE 5.1 km/h 10.3 km/h 43 % 0 mm
10:42 -9.5 °C -16.4 °C 34601.5 hPa West 9.8 km/h 9.8 km/h 43 % 0 mm
10:47 -9.2 °C -16.2 °C 34601.5 hPa West 12.7 km/h 12.7 km/h 43 % 0 mm
10:52 -8.9 °C -16.3 °C 34601.5 hPa NE 11.9 km/h 12.2 km/h 41 % 0 mm
10:57 -9.1 °C -16.4 °C 34601.5 hPa NNE 17.9 km/h 17.9 km/h 41 % 0 mm
11:02 -9.1 °C -16.4 °C 34601.5 hPa ENE 15 km/h 15 km/h 41 % 0 mm
11:07 -8.8 °C -15.9 °C 34601.5 hPa ENE 11.9 km/h 11.9 km/h 42 % 0 mm
11:12 -8.6 °C -16 °C 34601.5 hPa ENE 11.9 km/h 11.9 km/h 41 % 0 mm
11:17 -8.5 °C -15.9 °C 34601.5 hPa NE 6 km/h 6 km/h 41 % 0 mm
11:22 -8.4 °C -15.8 °C 34601.5 hPa West 9 km/h 9 km/h 41 % 0 mm
11:27 -8.1 °C -15.7 °C 34601.5 hPa WSW 6 km/h 6 km/h 40 % 0 mm
11:32 -7.9 °C -15.7 °C 34601.5 hPa SW 15 km/h 15 km/h 39 % 0 mm
11:37 -7.7 °C -15.8 °C 34601.5 hPa WNW 9 km/h 9 km/h 38 % 0 mm
11:42 -7.7 °C -15.9 °C 34567.7 hPa SSE 17.9 km/h 17.9 km/h 37 % 0 mm
11:47 -7.7 °C -16.4 °C 34567.7 hPa SW 20.9 km/h 20.9 km/h 35 % 0 mm
11:52 -7.7 °C -16.4 °C 34567.7 hPa SW 11.9 km/h 11.9 km/h 35 % 0 mm
11:57 -7.5 °C -16.3 °C 34567.7 hPa SW 11.9 km/h 11.9 km/h 35 % 0 mm
12:02 -7.6 °C -16.6 °C 34567.7 hPa WSW 15 km/h 15 km/h 34 % 0 mm
12:07 -7.5 °C -16.5 °C 34567.7 hPa NW 12.7 km/h 12.7 km/h 34 % 0 mm
12:12 -7.4 °C -16.4 °C 34567.7 hPa WSW 23.8 km/h 23.8 km/h 34 % 0 mm
12:17 -7.3 °C -16.3 °C 34567.7 hPa WSW 15.6 km/h 15.6 km/h 34 % 0 mm
12:22 -7.2 °C -16.4 °C 34567.7 hPa WSW 19.6 km/h 19.6 km/h 33 % 0 mm
12:27 -7.2 °C -16.5 °C 34533.8 hPa WSW 15 km/h 15 km/h 33 % 0 mm
12:32 -7 °C -16.3 °C 34533.8 hPa West 15 km/h 15 km/h 33 % 0 mm
12:37 -6.9 °C -16.4 °C 34533.8 hPa SW 17.9 km/h 17.9 km/h 32 % 0 mm
12:42 -6.7 °C -16.3 °C 34533.8 hPa WNW 11.9 km/h 11.9 km/h 32 % 0 mm
12:47 -6.8 °C -16.3 °C 34533.8 hPa SW 16.1 km/h 16.1 km/h 32 % 0 mm
12:57 -6.8 °C -16.6 °C 34533.8 hPa WNW 23.8 km/h 23.8 km/h 31 % 0 mm
13:02 -6.6 °C -16.6 °C 34533.8 hPa NW 20.9 km/h 20.9 km/h 30 % 0 mm
13:07 -6.7 °C -16.5 °C 34533.8 hPa West 23.8 km/h 23.8 km/h 31 % 0 mm
13:17 -6.5 °C -16.6 °C 34567.7 hPa West 11.9 km/h 11.9 km/h 30 % 0 mm
13:22 -6.4 °C -16.5 °C 34567.7 hPa WSW 23.8 km/h 23.8 km/h 30 % 0 mm
13:27 -6.6 °C -16.6 °C 34533.8 hPa WNW 15 km/h 15 km/h 30 % 0 mm
13:32 -6.3 °C -16.4 °C 34533.8 hPa WSW 23.8 km/h 23.8 km/h 30 % 0 mm
13:37 -6.4 °C -16.5 °C 34533.8 hPa SW 15.3 km/h 15.3 km/h 30 % 0 mm
13:42 -6.3 °C -16.4 °C 34533.8 hPa WSW 15 km/h 15 km/h 30 % 0 mm
13:47 -6.3 °C -16.4 °C 34533.8 hPa SW 26.9 km/h 26.9 km/h 30 % 0 mm
13:52 -6.1 °C -16.2 °C 34533.8 hPa WSW 17.9 km/h 17.9 km/h 30 % 0 mm
13:57 -6.1 °C -16.3 °C 34533.8 hPa WSW 25.9 km/h 25.9 km/h 30 % 0 mm
14:02 -6.1 °C -16.3 °C 34533.8 hPa WSW 11.9 km/h 14 km/h 30 % 0 mm
14:07 -6.2 °C -16.3 °C 34533.8 hPa SW 23.8 km/h 23.8 km/h 30 % 0 mm
14:12 -6.1 °C -16.3 °C 34533.8 hPa West 23.8 km/h 23.8 km/h 30 % 0 mm
14:17 -5.8 °C -16 °C 34533.8 hPa WSW 15 km/h 15 km/h 30 % 0 mm
14:22 -5.7 °C -16.2 °C 34533.8 hPa SW 32.3 km/h 32.3 km/h 29 % 0 mm
14:27 -5.9 °C -16.3 °C 34533.8 hPa SW 15.3 km/h 16.1 km/h 29 % 0 mm
14:32 -5.7 °C -16.2 °C 34533.8 hPa SW 20.9 km/h 20.9 km/h 29 % 0 mm
14:37 -5.6 °C -16.1 °C 34533.8 hPa NNE 9 km/h 9 km/h 29 % 0 mm
14:42 -5.6 °C -16.1 °C 34533.8 hPa NNW 20.3 km/h 20.3 km/h 29 % 0 mm
14:47 -5.7 °C -16.2 °C 34533.8 hPa WSW 32.8 km/h 32.8 km/h 29 % 0 mm
14:52 -5.5 °C -16 °C 34533.8 hPa SW 11.9 km/h 11.9 km/h 29 % 0 mm
14:57 -5.6 °C -16.1 °C 34533.8 hPa WSW 20.9 km/h 20.9 km/h 29 % 0 mm
15:02 -5.6 °C -16.1 °C 34533.8 hPa NW 25.9 km/h 25.9 km/h 29 % 0 mm
15:07 -5.6 °C -16.1 °C 34533.8 hPa WSW 11.9 km/h 11.9 km/h 29 % 0 mm
15:12 -5.5 °C -16 °C 34533.8 hPa WSW 19.2 km/h 19.2 km/h 29 % 0 mm
15:17 -5.5 °C -16 °C 34533.8 hPa East 23.8 km/h 23.8 km/h 29 % 0 mm
15:22 -5.6 °C -16.1 °C 34533.8 hPa WSW 26.9 km/h 26.9 km/h 29 % 0 mm
15:27 -5.5 °C -16 °C 34496.6 hPa West 17.9 km/h 17.9 km/h 29 % 0 mm
15:32 -5.3 °C -16.1 °C 34496.6 hPa West 17.9 km/h 17.9 km/h 28 % 0 mm
15:42 -5.6 °C -16.3 °C 34533.8 hPa West 29.8 km/h 29.8 km/h 28 % 0 mm
15:47 -5.7 °C -16.7 °C 34533.8 hPa West 15 km/h 19.6 km/h 27 % 0 mm
15:52 -5.7 °C -17 °C 34533.8 hPa SW 23.8 km/h 24.3 km/h 26 % 0 mm
15:57 -5.6 °C -16.6 °C 34496.6 hPa WSW 15.3 km/h 15.3 km/h 27 % 0 mm
16:02 -5.6 °C -16.6 °C 34496.6 hPa SW 26.9 km/h 26.9 km/h 27 % 0 mm
16:07 -5.3 °C -16.4 °C 34496.6 hPa SW 15 km/h 15 km/h 27 % 0 mm
16:12 -5.3 °C -16.3 °C 34496.6 hPa WNW 20.9 km/h 20.9 km/h 27 % 0 mm
16:17 -5.4 °C -16.8 °C 34496.6 hPa WSW 23.8 km/h 23.8 km/h 26 % 0 mm
16:22 -5.2 °C -16.3 °C 34496.6 hPa WSW 15 km/h 15 km/h 27 % 0 mm
16:27 -4.9 °C -16.3 °C 34496.6 hPa WSW 11.1 km/h 11.1 km/h 26 % 0 mm
16:32 -5.1 °C -16.2 °C 34496.6 hPa SSW 11.9 km/h 11.9 km/h 27 % 0 mm
16:37 -5.1 °C -16.2 °C 34496.6 hPa WSW 26.9 km/h 26.9 km/h 27 % 0 mm
16:42 -5.1 °C -16.4 °C 34462.7 hPa SW 23.8 km/h 23.8 km/h 26 % 0 mm
16:47 -5.1 °C -16.5 °C 34462.7 hPa WNW 17.9 km/h 17.9 km/h 26 % 0 mm
16:52 -5.2 °C -16.6 °C 34462.7 hPa WNW 15 km/h 15 km/h 26 % 0 mm
16:57 -5.2 °C -16.3 °C 34496.6 hPa WSW 17.9 km/h 17.9 km/h 27 % 0 mm
17:02 -5.1 °C -16.2 °C 34496.6 hPa South 11.9 km/h 11.9 km/h 27 % 0 mm
17:07 -4.9 °C -16.3 °C 34496.6 hPa West 11.9 km/h 11.9 km/h 26 % 0 mm
17:12 -4.8 °C -16.3 °C 34496.6 hPa SSW 12.7 km/h 12.7 km/h 26 % 0 mm
17:17 -4.9 °C -16.3 °C 34496.6 hPa SW 17.9 km/h 17.9 km/h 26 % 0 mm
17:22 -4.9 °C -16.3 °C 34496.6 hPa WSW 23.8 km/h 23.8 km/h 26 % 0 mm
17:27 -5 °C -16.4 °C 34496.6 hPa West 22.5 km/h 22.5 km/h 26 % 0 mm
17:32 -5.2 °C -16.6 °C 34496.6 hPa WSW 15 km/h 15 km/h 26 % 0 mm
17:37 -5.2 °C -16.6 °C 34496.6 hPa WSW 19.2 km/h 19.2 km/h 26 % 0 mm
17:42 -5.1 °C -16.2 °C 34462.7 hPa West 17.9 km/h 17.9 km/h 27 % 0 mm
17:47 -5 °C -16.4 °C 34462.7 hPa NNW 15 km/h 15 km/h 26 % 0 mm
17:52 -4.9 °C -16.3 °C 34462.7 hPa ENE 11.9 km/h 11.9 km/h 26 % 0 mm
17:57 -4.8 °C -16.3 °C 34462.7 hPa WNW 15 km/h 15 km/h 26 % 0 mm
18:02 -4.8 °C -16.2 °C 34462.7 hPa West 17.9 km/h 17.9 km/h 26 % 0 mm
18:07 -4.8 °C -16.3 °C 34462.7 hPa NW 17.9 km/h 17.9 km/h 26 % 0 mm
18:12 -4.8 °C -16.3 °C 34462.7 hPa NNW 11.9 km/h 11.9 km/h 26 % 0 mm
18:17 -4.8 °C -16.3 °C 34462.7 hPa ENE 9 km/h 9 km/h 26 % 0 mm
18:22 -4.8 °C -16.3 °C 34462.7 hPa NE 15 km/h 15 km/h 26 % 0 mm
18:27 -4.8 °C -16.2 °C 34496.6 hPa NW 9 km/h 9 km/h 26 % 0 mm
18:32 -4.8 °C -15.9 °C 34496.6 hPa NE 7.6 km/h 7.6 km/h 27 % 0 mm
18:37 -4.9 °C -16.1 °C 34496.6 hPa South 12.2 km/h 12.2 km/h 27 % 0 mm
18:42 -4.9 °C -16.3 °C 34496.6 hPa WSW 11.9 km/h 11.9 km/h 26 % 0 mm
18:47 -4.9 °C -16 °C 34496.6 hPa NNW 15 km/h 15 km/h 27 % 0 mm
18:52 -5.1 °C -16.2 °C 34496.6 hPa ENE 20.9 km/h 20.9 km/h 27 % 0 mm
18:57 -5.1 °C -15.9 °C 34496.6 hPa West 9.8 km/h 9.8 km/h 28 % 0 mm
19:07 -5.2 °C -16 °C 34496.6 hPa WNW 6 km/h 6 km/h 28 % 0 mm
19:12 -5.4 °C -16.2 °C 34496.6 hPa West 9 km/h 9 km/h 28 % 0 mm
19:17 -5.5 °C -16.3 °C 34496.6 hPa WNW 15 km/h 15 km/h 28 % 0 mm
19:20 -9.9 °C -15.3 °C 34601.5 hPa ENE 2.6 km/h 5.1 km/h 52 % 0 mm
19:22 -5.5 °C -16.3 °C 34496.6 hPa WNW 6 km/h 6 km/h 28 % 0 mm
19:27 -5.6 °C -16.3 °C 34496.6 hPa West 11.9 km/h 11.9 km/h 28 % 0 mm
19:30 -9.9 °C -15.2 °C 34601.5 hPa ENE 2.6 km/h 5.1 km/h 53 % 0 mm
19:32 -5.7 °C -16.4 °C 34496.6 hPa ENE 9 km/h 9 km/h 28 % 0 mm
19:37 -5.8 °C -16.6 °C 34496.6 hPa NW 6.8 km/h 6.8 km/h 28 % 0 mm
19:40 -10.1 °C -15.3 °C 34601.5 hPa NE 2.6 km/h 5.1 km/h 53 % 0 mm
19:42 -5.8 °C -16.6 °C 34496.6 hPa NW 3.1 km/h 5.1 km/h 28 % 0 mm
19:47 -5.9 °C -16.6 °C 34496.6 hPa NW 6.8 km/h 6.8 km/h 28 % 0 mm
19:50 -10.2 °C -15.1 °C 34601.5 hPa NE 2.6 km/h 7.7 km/h 55 % 0 mm
19:52 -6 °C -16.7 °C 34496.6 hPa WSW 6 km/h 6 km/h 28 % 0 mm
19:57 -6 °C -16.7 °C 34496.6 hPa WSW 11.9 km/h 11.9 km/h 28 % 0 mm
20:00 -10.3 °C -15.1 °C 34601.5 hPa NE 2.6 km/h 5.1 km/h 56 % 0 mm
20:02 -6.1 °C -16.5 °C 34496.6 hPa WNW 9.8 km/h 9.8 km/h 29 % 0 mm
20:07 -6.2 °C -16.6 °C 34496.6 hPa WNW 9 km/h 9 km/h 29 % 0 mm
20:10 -10.4 °C -15.2 °C 34601.5 hPa Calm   2.6 km/h 56 % 0 mm
20:12 -6.2 °C -16.6 °C 34496.6 hPa SSW 6.8 km/h 6.8 km/h 29 % 0 mm
20:17 -6.3 °C -16.7 °C 34496.6 hPa West 6 km/h 6 km/h 29 % 0 mm
20:20 -10.5 °C -15 °C 34601.5 hPa NE 2.6 km/h 2.6 km/h 58 % 0 mm
20:22 -6.4 °C -16.8 °C 34496.6 hPa SW 6 km/h 6 km/h 29 % 0 mm
20:27 -6.5 °C -16.8 °C 34533.8 hPa WSW 6.8 km/h 6.8 km/h 29 % 0 mm
20:30 -10.8 °C -15.7 °C 34601.5 hPa NE 2.6 km/h 2.6 km/h 55 % 0 mm
20:32 -6.6 °C -16.9 °C 34533.8 hPa West 9 km/h 9 km/h 29 % 0 mm
20:40 -11 °C -15.9 °C 34601.5 hPa Calm   5.1 km/h 55 % 0 mm
20:42 -6.7 °C -16.8 °C 34533.8 hPa West 6 km/h 6 km/h 30 % 0 mm
20:47 -6.8 °C -16.9 °C 34533.8 hPa WSW 9 km/h 9 km/h 30 % 0 mm
20:50 -11.1 °C -15.8 °C 34601.5 hPa Calm   5.1 km/h 56 % 0 mm
20:52 -6.9 °C -17 °C 34533.8 hPa WNW 3.1 km/h   30 % 0 mm
20:57 -7 °C -17 °C 34533.8 hPa WNW 6 km/h   30 % 0 mm
21:00 -11.2 °C -15.6 °C 34601.5 hPa Calm     58 % 0 mm
21:02 -7.1 °C -17.1 °C 34533.8 hPa WNW 6 km/h 6 km/h 30 % 0 mm
21:07 -7.2 °C -17.2 °C 34533.8 hPa ENE 3.1 km/h   30 % 0 mm
21:10 -11.3 °C -15.9 °C 34601.5 hPa Calm     57 % 0 mm
21:12 -7.2 °C -17.2 °C 34533.8 hPa ENE 5.1 km/h 5.1 km/h 30 % 0 mm
21:17 -7.3 °C -17.3 °C 34533.8 hPa North 6.3 km/h 6.3 km/h 30 % 0 mm
21:22 -7.3 °C -17.1 °C 34533.8 hPa ENE 6 km/h 6 km/h 31 % 0 mm
21:27 -7.4 °C -17.1 °C 34533.8 hPa ENE 6.8 km/h 6.8 km/h 31 % 0 mm
21:30 -11.3 °C -15.7 °C 34601.5 hPa NNE 2.6 km/h 5.1 km/h 59 % 0 mm
21:32 -7.6 °C -17.3 °C 34533.8 hPa NE 9 km/h 9 km/h 31 % 0 mm
21:37 -7.7 °C -17.3 °C 34533.8 hPa NE 6 km/h 6 km/h 31 % 0 mm
21:40 -11.4 °C -15.8 °C 34601.5 hPa ENE 2.6 km/h 5.1 km/h 58 % 0 mm
21:42 -7.7 °C -17.4 °C 34567.7 hPa NNE 3.1 km/h 3.1 km/h 31 % 0 mm
21:47 -7.8 °C -17.3 °C 34567.7 hPa NNE 3.1 km/h   32 % 0 mm
21:50 -11.4 °C -15.9 °C 34601.5 hPa ENE 2.6 km/h 5.1 km/h 58 % 0 mm
21:52 -7.9 °C -17.3 °C 34567.7 hPa NNE 3.1 km/h   32 % 0 mm
21:57 -7.9 °C -17.3 °C 34567.7 hPa East 6 km/h 6 km/h 32 % 0 mm
22:00 -11.6 °C -15.8 °C 34601.5 hPa ENE 2.6 km/h 5.1 km/h 59 % 0 mm
22:02 -8 °C -17.4 °C 34567.7 hPa SW 6.3 km/h 6.3 km/h 32 % 0 mm
22:07 -8.2 °C -17.6 °C 34567.7 hPa SW 6 km/h 6 km/h 32 % 0 mm
22:10 -11.7 °C -15.8 °C 34601.5 hPa Calm   5.1 km/h 60 % 0 mm
22:12 -8.2 °C -17.3 °C 34601.5 hPa WSW 3.7 km/h   33 % 0 mm
22:17 -8.3 °C -17.4 °C 34601.5 hPa SSW 3.1 km/h   33 % 0 mm
22:20 -11.9 °C -16 °C 34601.5 hPa Calm     60 % 0 mm
22:22 -8.3 °C -17.2 °C 34601.5 hPa SE 6.8 km/h   34 % 0 mm
22:27 -8.4 °C -17.1 °C 34601.5 hPa South 3.1 km/h   35 % 0 mm
22:30 -12.1 °C -16.1 °C 34601.5 hPa Calm     61 % 0 mm
22:32 -8.4 °C -16.9 °C 34601.5 hPa East 9 km/h 9 km/h 36 % 0 mm
22:37 -8.6 °C -16.8 °C 34601.5 hPa ENE 11.9 km/h 11.9 km/h 37 % 0 mm
22:40 -12.2 °C -16.2 °C 34601.5 hPa Calm   5.1 km/h 61 % 0 mm
22:42 -8.7 °C -16.4 °C 34601.5 hPa ENE 9 km/h 9 km/h 39 % 0 mm
22:47 -8.8 °C -16.4 °C 34601.5 hPa East 11.9 km/h 11.9 km/h 40 % 0 mm
22:50 -12.3 °C -16.4 °C 34601.5 hPa Calm   2.6 km/h 60 % 0 mm
22:52 -8.9 °C -16.3 °C 34601.5 hPa ENE 9 km/h 9 km/h 41 % 0 mm
23:00 -12.4 °C -16.7 °C 34601.5 hPa WSW 5.1 km/h 5.1 km/h 59 % 0 mm
23:02 -9.1 °C -15.9 °C 34601.5 hPa ENE 6 km/h   44 % 0 mm
23:07 -9.1 °C -15.7 °C 34601.5 hPa Calm     45 % 0 mm
23:10 -12.5 °C -16.3 °C 34601.5 hPa WSW 2.6 km/h 5.1 km/h 62 % 0 mm
23:17 -9.3 °C -15.7 °C 34601.5 hPa East 7.6 km/h 7.6 km/h 46 % 0 mm
23:20 -12.4 °C -16.4 °C 34601.5 hPa WSW 2.6 km/h 5.1 km/h 61 % 0 mm
23:22 -9.3 °C -15.6 °C 34601.5 hPa ENE 9 km/h 9 km/h 47 % 0 mm
23:27 -9.4 °C -15.5 °C 34601.5 hPa East 6 km/h 6 km/h 48 % 0 mm
23:30 -12.3 °C -16.2 °C 34567.7 hPa Calm   2.6 km/h 62 % 0 mm
23:37 -9.6 °C -15.3 °C 34601.5 hPa East 6.3 km/h 6.3 km/h 50 % 0 mm
23:40 -12.3 °C -16.2 °C 34567.7 hPa Calm   2.6 km/h 62 % 0 mm
23:42 -9.6 °C -15.4 °C 34601.5 hPa SW 4.2 km/h 4.2 km/h 49 % 0 mm
23:47 -9.7 °C -15.4 °C 34601.5 hPa SW 3.1 km/h   50 % 0 mm
23:50 -12.3 °C -16.2 °C 34567.7 hPa Calm   5.1 km/h 62 % 0 mm
23:52 -9.8 °C -15.5 °C 34601.5 hPa Calm     50 % 0 mm
23:58 -9.8 °C -15.4 °C 34601.5 hPa ENE 3.7 km/h 3.7 km/h 51 % 0 mm
Meteo Sesrovires
Elogis d' Weather Underground - 2 mb

Guio original per  Jim McMurry - jmcmurry@mwt.net Adaptat per a la plantilla per  Wim van der Kuil - Leuven-Template.eu

Trobareu la nostra informacio del temps tambe a:

Weather Underground

AWEKAS